createdAt,value
2022-08-19T00:02:14.013Z,13.25
2022-08-19T00:04:41.183Z,12.27
2022-08-19T00:07:08.360Z,12.13
2022-08-19T00:09:35.181Z,11.93
2022-08-19T00:12:02.404Z,11.63
2022-08-19T00:14:33.092Z,9.60
2022-08-19T00:17:00.926Z,14.73
2022-08-19T00:19:31.015Z,11.63
2022-08-19T00:22:00.657Z,10.88
2022-08-19T00:24:30.320Z,11.55
2022-08-19T00:26:58.100Z,11.05
2022-08-19T00:29:44.844Z,12.57
2022-08-19T00:32:13.047Z,11.85
2022-08-19T00:34:40.684Z,11.05
2022-08-19T00:37:09.693Z,12.85
2022-08-19T00:39:36.807Z,13.77
2022-08-19T00:42:03.952Z,11.20
2022-08-19T00:44:31.327Z,12.60
2022-08-19T00:47:03.398Z,11.20
2022-08-19T00:49:37.859Z,13.50
2022-08-19T00:52:13.675Z,11.50
2022-08-19T00:54:41.702Z,14.13
2022-08-19T00:57:14.862Z,12.90
2022-08-19T00:59:56.491Z,11.48
2022-08-19T01:02:33.156Z,10.85
2022-08-19T01:05:02.544Z,12.70
2022-08-19T01:07:35.922Z,13.27
2022-08-19T01:10:12.448Z,12.88
2022-08-19T01:12:40.601Z,14.73
2022-08-19T01:15:10.798Z,13.55
2022-08-19T01:17:40.679Z,16.25
2022-08-19T01:20:10.682Z,14.32
2022-08-19T01:22:40.089Z,13.65
2022-08-19T01:25:14.871Z,17.27
2022-08-19T01:27:48.476Z,15.90
2022-08-19T01:30:23.424Z,12.57
2022-08-19T01:32:51.712Z,14.68
2022-08-19T01:35:19.779Z,16.83
2022-08-19T01:37:58.752Z,17.80
2022-08-19T01:40:31.808Z,13.88
2022-08-19T01:42:58.782Z,13.38
2022-08-19T01:45:28.583Z,14.60
2022-08-19T01:48:01.319Z,15.65
2022-08-19T01:50:30.784Z,17.60
2022-08-19T01:53:06.369Z,18.63
2022-08-19T01:55:34.994Z,17.65
2022-08-19T01:58:06.532Z,14.82
2022-08-19T02:00:35.973Z,16.52
2022-08-19T02:03:04.875Z,17.83
2022-08-19T02:05:31.810Z,15.27
2022-08-19T02:07:59.870Z,15.25
2022-08-19T02:10:27.203Z,14.70
2022-08-19T02:12:56.480Z,17.50
2022-08-19T02:15:23.496Z,16.25
2022-08-19T02:17:50.301Z,17.75
2022-08-19T02:20:18.027Z,15.60
2022-08-19T02:22:45.810Z,14.30
2022-08-19T02:25:14.281Z,17.15
2022-08-19T02:27:43.105Z,15.50
2022-08-19T02:30:18.394Z,16.80
2022-08-19T02:32:45.674Z,14.32
2022-08-19T02:35:13.989Z,14.75
2022-08-19T02:38:00.896Z,15.55
2022-08-19T02:40:39.033Z,17.88
2022-08-19T02:43:08.464Z,15.93
2022-08-19T02:45:41.481Z,16.63
2022-08-19T02:48:21.427Z,16.38
2022-08-19T02:50:55.670Z,15.43
2022-08-19T02:53:25.802Z,18.65
2022-08-19T02:55:53.143Z,16.08
2022-08-19T02:58:23.784Z,19.23
2022-08-19T03:00:54.315Z,17.48
2022-08-19T03:03:21.228Z,17.83
2022-08-19T03:05:56.459Z,20.48
2022-08-19T03:08:31.482Z,17.45
2022-08-19T03:11:00.712Z,18.05
2022-08-19T03:13:27.685Z,19.42
2022-08-19T03:15:54.467Z,20.08
2022-08-19T03:18:23.282Z,17.13
2022-08-19T03:20:53.123Z,18.35
2022-08-19T03:23:19.874Z,22.75
2022-08-19T03:26:02.984Z,19.17
2022-08-19T03:28:38.308Z,18.38
2022-08-19T03:31:44.320Z,20.00
2022-08-19T03:34:00.815Z,20.10
2022-08-19T03:36:28.655Z,17.00
2022-08-19T03:38:59.781Z,17.27
2022-08-19T03:41:44.465Z,17.52
2022-08-19T03:44:21.600Z,19.08
2022-08-19T03:46:50.966Z,19.65
2022-08-19T03:49:20.354Z,19.27
2022-08-19T03:51:49.372Z,19.05
2022-08-19T03:54:19.523Z,21.13
2022-08-19T03:56:48.584Z,21.45
2022-08-19T03:59:23.241Z,20.05
2022-08-19T04:01:53.014Z,19.10
2022-08-19T04:04:20.003Z,20.48
2022-08-19T04:06:48.239Z,18.88
2022-08-19T04:09:15.122Z,20.48
2022-08-19T04:11:45.319Z,20.17
2022-08-19T04:14:15.172Z,18.98
2022-08-19T04:16:43.530Z,23.52
2022-08-19T04:19:12.472Z,21.58
2022-08-19T04:21:39.769Z,22.33
2022-08-19T04:24:07.168Z,19.95
2022-08-19T04:26:37.957Z,21.60
2022-08-19T04:29:12.289Z,18.85
2022-08-19T04:31:41.071Z,20.88
2022-08-19T04:34:13.417Z,21.88
2022-08-19T04:36:46.031Z,22.38
2022-08-19T04:39:17.162Z,24.00
2022-08-19T04:42:03.034Z,22.92
2022-08-19T04:47:01.445Z,23.92
2022-08-19T04:49:28.838Z,26.88
2022-08-19T04:51:55.996Z,26.58
2022-08-19T04:54:38.606Z,32.38
2022-08-19T04:57:10.557Z,33.03
2022-08-19T04:59:38.893Z,34.30
2022-08-19T05:02:07.147Z,36.45
2022-08-19T05:04:34.609Z,32.88
2022-08-19T05:07:02.456Z,33.00
2022-08-19T05:09:52.551Z,35.85
2022-08-19T05:12:17.919Z,35.10
2022-08-19T05:14:46.961Z,33.80
2022-08-19T05:17:33.573Z,35.00
2022-08-19T05:20:20.914Z,33.00
2022-08-19T05:22:48.745Z,34.35
2022-08-19T05:25:20.211Z,40.65
2022-08-19T05:27:47.630Z,35.05
2022-08-19T05:30:15.233Z,37.28
2022-08-19T05:32:42.242Z,37.80
2022-08-19T05:35:10.570Z,39.38
2022-08-19T05:37:37.666Z,42.72
2022-08-19T05:40:05.451Z,40.35
2022-08-19T05:42:32.469Z,37.92
2022-08-19T05:45:02.180Z,38.88
2022-08-19T05:47:29.163Z,41.80
2022-08-19T05:49:55.926Z,38.50
2022-08-19T05:52:25.833Z,37.15
2022-08-19T05:54:57.140Z,39.00
2022-08-19T05:57:25.439Z,43.28
2022-08-19T05:59:58.048Z,37.97
2022-08-19T06:02:31.609Z,38.58
2022-08-19T06:04:58.736Z,39.50
2022-08-19T06:07:30.268Z,43.42
2022-08-19T06:10:00.265Z,45.78
2022-08-19T06:12:34.038Z,43.78
2022-08-19T06:15:05.064Z,40.65
2022-08-19T06:17:32.831Z,38.97
2022-08-19T06:20:00.229Z,44.53
2022-08-19T06:22:28.213Z,42.08
2022-08-19T06:24:56.284Z,45.42
2022-08-19T06:27:23.490Z,44.95
2022-08-19T06:29:50.925Z,43.13
2022-08-19T06:32:19.522Z,40.00
2022-08-19T06:34:46.423Z,41.33
2022-08-19T06:37:16.161Z,46.63
2022-08-19T06:39:44.749Z,45.28
2022-08-19T06:42:17.401Z,44.08
2022-08-19T06:44:48.804Z,42.13
2022-08-19T06:47:23.777Z,45.42
2022-08-19T06:50:02.981Z,43.80
2022-08-19T06:52:40.301Z,43.63
2022-08-19T06:55:08.486Z,39.58
2022-08-19T06:57:35.808Z,44.60
2022-08-19T07:00:07.158Z,47.22
2022-08-19T07:02:38.473Z,45.63
2022-08-19T07:05:06.687Z,43.13
2022-08-19T07:07:38.845Z,44.33
2022-08-19T07:10:13.365Z,43.85
2022-08-19T07:12:41.802Z,43.22
2022-08-19T07:15:11.842Z,46.28
2022-08-19T07:17:39.632Z,44.42
2022-08-19T07:20:11.442Z,45.78
2022-08-19T07:22:41.650Z,46.03
2022-08-19T07:25:09.911Z,41.80
2022-08-19T07:27:38.045Z,40.08
2022-08-19T07:30:13.007Z,42.20
2022-08-19T07:32:40.827Z,40.45
2022-08-19T07:35:09.971Z,40.72
2022-08-19T07:37:38.098Z,39.60
2022-08-19T07:40:10.550Z,41.67
2022-08-19T07:42:37.864Z,45.90
2022-08-19T07:45:08.168Z,49.88
2022-08-19T07:47:58.402Z,43.88
2022-08-19T07:50:24.435Z,45.42
2022-08-19T07:52:51.427Z,50.35
2022-08-19T07:55:41.794Z,46.17
2022-08-19T07:58:10.960Z,47.25
2022-08-19T08:00:38.560Z,45.90
2022-08-19T08:03:05.341Z,50.08
2022-08-19T08:05:55.765Z,49.15
2022-08-19T08:08:44.049Z,51.25
2022-08-19T08:11:17.573Z,50.97
2022-08-19T08:14:00.811Z,56.00
2022-08-19T08:16:31.002Z,56.05
2022-08-19T08:18:58.792Z,53.38
2022-08-19T08:21:27.089Z,53.17
2022-08-19T08:23:56.483Z,56.13
2022-08-19T08:26:24.406Z,50.83
2022-08-19T08:28:51.575Z,51.85
2022-08-19T08:31:22.382Z,54.83
2022-08-19T08:33:49.325Z,50.30
2022-08-19T08:36:18.660Z,48.72
2022-08-19T08:38:49.158Z,56.25
2022-08-19T08:41:53.780Z,55.38
2022-08-19T08:47:21.480Z,58.85
2022-08-19T08:50:20.336Z,62.13
2022-08-19T08:52:52.166Z,58.83
2022-08-19T08:55:22.967Z,62.17
2022-08-19T08:57:49.722Z,58.55
2022-08-19T09:00:23.353Z,61.33
2022-08-19T09:02:50.737Z,52.58
2022-08-19T09:05:22.370Z,57.05
2022-08-19T09:08:01.538Z,56.90
2022-08-19T09:10:44.079Z,56.00
2022-08-19T09:13:37.515Z,48.88
2022-08-19T09:16:28.019Z,39.70
2022-08-19T09:19:02.696Z,39.28
2022-08-19T09:21:30.554Z,42.28
2022-08-19T09:24:00.462Z,38.55
2022-08-19T09:26:47.147Z,41.67
2022-08-19T09:29:15.721Z,41.20
2022-08-19T09:31:44.591Z,45.28
2022-08-19T09:34:20.617Z,41.03
2022-08-19T09:36:54.634Z,39.58
2022-08-19T09:39:22.466Z,40.35
2022-08-19T09:41:50.946Z,37.75
2022-08-19T09:44:18.969Z,34.28
2022-08-19T09:46:48.162Z,34.33
2022-08-19T09:49:18.333Z,33.70
2022-08-19T09:51:50.798Z,31.00
2022-08-19T09:54:23.736Z,29.52
2022-08-19T09:56:53.171Z,29.30
2022-08-19T09:59:20.130Z,32.17
2022-08-19T10:01:49.438Z,31.10
2022-08-19T10:04:20.585Z,23.27
2022-08-19T10:06:53.488Z,26.90
2022-08-19T10:09:26.444Z,32.47
2022-08-19T10:12:02.934Z,28.73
2022-08-19T10:14:30.234Z,23.50
2022-08-19T10:16:57.567Z,22.48
2022-08-19T10:19:26.713Z,20.67
2022-08-19T10:22:00.124Z,21.80
2022-08-19T10:24:28.789Z,22.15
2022-08-19T10:26:58.905Z,24.60
2022-08-19T10:29:31.990Z,30.67
2022-08-19T10:32:02.602Z,24.48
2022-08-19T10:34:31.701Z,24.27
2022-08-19T10:37:01.775Z,18.98
2022-08-19T10:39:31.185Z,19.48
2022-08-19T10:41:58.759Z,22.55
2022-08-19T10:44:31.956Z,60.13
2022-08-19T10:47:00.476Z,19.42
2022-08-19T10:49:28.042Z,21.02
2022-08-19T10:52:18.544Z,27.95
2022-08-19T10:55:08.784Z,23.90
2022-08-19T10:57:59.413Z,23.83
2022-08-19T11:00:24.442Z,25.30
2022-08-19T11:02:51.978Z,25.25
2022-08-19T11:05:19.872Z,24.33
2022-08-19T11:07:47.011Z,24.30
2022-08-19T11:10:19.573Z,22.15
2022-08-19T11:12:48.213Z,18.93
2022-08-19T11:15:15.407Z,20.85
2022-08-19T11:17:44.360Z,20.48
2022-08-19T11:20:15.133Z,21.15
2022-08-19T11:22:43.221Z,15.88
2022-08-19T11:25:14.834Z,17.05
2022-08-19T11:27:44.425Z,15.93
2022-08-19T11:30:13.530Z,17.88
2022-08-19T11:32:47.119Z,22.45
2022-08-19T11:35:18.779Z,16.30
2022-08-19T11:45:42.646Z,19.98
2022-08-19T11:51:39.901Z,17.08
2022-08-19T11:54:19.701Z,16.95
2022-08-19T11:56:47.239Z,16.23
2022-08-19T11:59:14.910Z,20.23
2022-08-19T12:01:43.559Z,15.85
2022-08-19T12:04:11.649Z,15.52
2022-08-19T12:06:42.158Z,16.30
2022-08-19T12:09:10.496Z,15.27
2022-08-19T12:11:39.055Z,14.05
2022-08-19T12:14:06.586Z,14.50
2022-08-19T12:16:33.986Z,13.80
2022-08-19T12:19:05.129Z,15.18
2022-08-19T12:21:34.861Z,13.32
2022-08-19T12:24:04.399Z,11.75
2022-08-19T12:26:36.004Z,13.57
2022-08-19T12:29:23.378Z,10.95
2022-08-19T12:31:51.434Z,10.65
2022-08-19T12:34:19.916Z,11.82
2022-08-19T12:36:46.828Z,11.27
2022-08-19T12:39:13.816Z,14.02
2022-08-19T12:41:50.543Z,13.63
2022-08-19T12:44:28.739Z,16.23
2022-08-19T12:46:55.867Z,15.68
2022-08-19T12:49:47.132Z,12.50
2022-08-19T12:52:10.360Z,12.40
2022-08-19T12:54:38.446Z,11.18
2022-08-19T12:57:09.452Z,11.18
2022-08-19T12:59:38.153Z,11.15
2022-08-19T13:02:07.130Z,15.18
2022-08-19T13:04:37.221Z,13.02
2022-08-19T13:07:04.792Z,15.23
2022-08-19T13:09:31.584Z,10.75
2022-08-19T13:11:58.482Z,14.38
2022-08-19T13:14:25.295Z,12.18
2022-08-19T13:16:53.994Z,9.23
2022-08-19T13:19:24.101Z,7.50
2022-08-19T13:21:51.899Z,9.90
2022-08-19T13:24:33.371Z,10.13
2022-08-19T13:27:01.903Z,11.57
2022-08-19T13:29:47.347Z,8.90
2022-08-19T13:32:32.869Z,7.95
2022-08-19T13:34:59.789Z,9.10
2022-08-19T13:37:44.806Z,8.07
2022-08-19T13:40:19.959Z,10.98
2022-08-19T13:42:49.462Z,10.13
2022-08-19T13:45:18.998Z,10.27
2022-08-19T13:47:47.682Z,9.02
2022-08-19T13:50:18.175Z,9.07
2022-08-19T13:52:45.054Z,9.15
2022-08-19T13:55:13.121Z,9.82
2022-08-19T13:57:40.313Z,9.50
2022-08-19T14:00:13.062Z,9.35
2022-08-19T14:02:40.739Z,9.35
2022-08-19T14:05:10.175Z,9.50
2022-08-19T14:07:37.327Z,8.73
2022-08-19T14:10:13.407Z,9.20
2022-08-19T14:12:41.175Z,10.43
2022-08-19T14:15:10.750Z,9.98
2022-08-19T14:17:43.043Z,9.30
2022-08-19T14:20:17.728Z,9.48
2022-08-19T14:22:47.433Z,7.55
2022-08-19T14:25:18.148Z,8.80
2022-08-19T14:27:45.388Z,10.00
2022-08-19T14:30:16.770Z,9.57
2022-08-19T14:32:46.830Z,7.05
2022-08-19T14:35:15.835Z,9.70
2022-08-19T14:37:46.055Z,8.13
2022-08-19T14:40:15.923Z,11.35
2022-08-19T14:42:43.285Z,6.78
2022-08-19T14:45:11.816Z,9.70
2022-08-19T14:47:46.902Z,8.25
2022-08-19T14:50:18.148Z,6.45
2022-08-19T14:52:48.743Z,6.63
2022-08-19T14:55:17.125Z,5.03
2022-08-19T14:57:44.902Z,6.07
2022-08-19T15:00:14.153Z,7.38
2022-08-19T15:02:42.586Z,6.00
2022-08-19T15:05:09.780Z,5.60
2022-08-19T15:07:37.645Z,5.72
2022-08-19T15:10:06.185Z,6.13
2022-08-19T15:12:34.977Z,5.32
2022-08-19T15:15:02.234Z,7.68
2022-08-19T15:17:43.545Z,6.63
2022-08-19T15:20:17.659Z,5.18
2022-08-19T15:22:44.860Z,5.93
2022-08-19T15:25:15.147Z,5.68
2022-08-19T15:27:41.982Z,4.72
2022-08-19T15:30:10.695Z,5.60
2022-08-19T15:32:38.324Z,4.20
2022-08-19T15:35:06.876Z,4.53
2022-08-19T15:37:34.506Z,8.55
2022-08-19T15:40:05.876Z,5.65
2022-08-19T15:42:33.174Z,4.97
2022-08-19T15:45:00.689Z,4.55
2022-08-19T15:47:35.574Z,5.72
2022-08-19T15:50:18.558Z,5.63
2022-08-19T15:52:52.972Z,7.18
2022-08-19T15:58:29.380Z,5.38
2022-08-19T16:01:21.364Z,8.02
2022-08-19T16:04:14.025Z,8.43
2022-08-19T16:06:47.144Z,9.32
2022-08-19T16:09:15.575Z,5.25
2022-08-19T16:11:45.897Z,6.32
2022-08-19T16:14:16.996Z,5.90
2022-08-19T16:16:46.769Z,6.80
2022-08-19T16:19:18.019Z,8.32
2022-08-19T16:21:46.911Z,7.82
2022-08-19T16:24:16.058Z,6.68
2022-08-19T16:26:44.440Z,5.82
2022-08-19T16:29:13.343Z,5.40
2022-08-19T16:31:44.410Z,5.85
2022-08-19T16:34:14.518Z,7.35
2022-08-19T16:36:42.227Z,5.10
2022-08-19T16:39:13.226Z,5.18
2022-08-19T16:41:42.594Z,5.28
2022-08-19T16:44:10.969Z,6.28
2022-08-19T16:46:38.848Z,4.70
2022-08-19T16:49:08.053Z,5.45
2022-08-19T16:51:35.478Z,3.78
2022-08-19T16:54:03.440Z,2.90
2022-08-19T16:56:31.551Z,4.38
2022-08-19T16:58:59.891Z,7.55
2022-08-19T17:01:28.451Z,5.22
2022-08-19T17:03:58.462Z,4.38
2022-08-19T17:06:29.798Z,2.83
2022-08-19T17:09:04.219Z,3.38
2022-08-19T17:11:34.332Z,5.15
2022-08-19T17:14:03.182Z,3.15
2022-08-19T17:16:33.159Z,4.72
2022-08-19T17:19:02.456Z,7.82
2022-08-19T17:21:32.525Z,5.40
2022-08-19T17:24:03.346Z,6.07
2022-08-19T17:26:30.968Z,7.95
2022-08-19T17:28:59.272Z,4.22
2022-08-19T17:31:28.719Z,6.63
2022-08-19T17:33:58.179Z,5.00
2022-08-19T17:36:27.189Z,4.80
2022-08-19T17:38:56.086Z,4.57
2022-08-19T17:41:24.771Z,4.57
2022-08-19T17:43:52.197Z,5.95
2022-08-19T17:46:20.449Z,9.05
2022-08-19T17:48:55.291Z,6.15
2022-08-19T17:51:33.934Z,6.45
2022-08-19T17:54:04.398Z,5.93
2022-08-19T17:56:31.257Z,4.95
2022-08-19T17:59:00.397Z,6.82
2022-08-19T18:01:40.294Z,6.68
2022-08-19T18:04:17.115Z,5.47
2022-08-19T18:06:46.904Z,4.75
2022-08-19T18:09:30.011Z,4.13
2022-08-19T18:12:06.830Z,5.85
2022-08-19T18:14:42.569Z,5.18
2022-08-19T18:17:17.630Z,4.63
2022-08-19T18:22:25.471Z,5.13
2022-08-19T18:24:52.854Z,6.38
2022-08-19T18:27:27.608Z,6.75
2022-08-19T18:29:59.260Z,3.95
2022-08-19T18:32:32.916Z,10.10
2022-08-19T18:35:02.087Z,8.65
2022-08-19T18:37:33.798Z,7.80
2022-08-19T18:40:19.152Z,6.80
2022-08-19T18:43:05.169Z,5.07
2022-08-19T18:45:53.332Z,6.47
2022-08-19T18:48:39.063Z,5.07
2022-08-19T18:51:11.741Z,5.35
2022-08-19T18:53:40.980Z,7.45
2022-08-19T18:56:10.055Z,9.18
2022-08-19T18:58:38.295Z,7.70
2022-08-19T19:01:10.878Z,7.57
2022-08-19T19:03:42.528Z,6.45
2022-08-19T19:06:09.732Z,6.88
2022-08-19T19:08:38.936Z,4.47
2022-08-19T19:11:06.235Z,5.22
2022-08-19T19:13:34.430Z,3.50
2022-08-19T19:16:01.553Z,5.53
2022-08-19T19:18:29.613Z,5.30
2022-08-19T19:20:57.263Z,5.07
2022-08-19T19:23:24.812Z,7.10
2022-08-19T19:25:52.579Z,5.32
2022-08-19T19:28:28.885Z,5.15
2022-08-19T19:31:00.244Z,5.85
2022-08-19T19:33:29.609Z,5.30
2022-08-19T19:35:56.650Z,4.47
2022-08-19T19:38:23.593Z,3.72
2022-08-19T19:40:50.402Z,6.30
2022-08-19T19:43:18.459Z,5.18
2022-08-19T19:45:48.211Z,3.88
2022-08-19T19:48:16.266Z,2.90
2022-08-19T19:50:44.678Z,3.83
2022-08-19T19:53:11.624Z,5.85
2022-08-19T19:55:41.717Z,3.08
2022-08-19T19:58:09.079Z,3.17
2022-08-19T20:00:36.021Z,3.72
2022-08-19T20:03:06.065Z,3.40
2022-08-19T20:05:35.380Z,3.30
2022-08-19T20:08:20.993Z,4.63
2022-08-19T20:13:16.779Z,6.47
2022-08-19T20:15:43.576Z,5.38
2022-08-19T20:18:14.280Z,6.13
2022-08-19T20:20:42.346Z,4.15
2022-08-19T20:23:13.946Z,5.13
2022-08-19T20:25:40.713Z,3.95
2022-08-19T20:28:08.590Z,6.32
2022-08-19T20:30:39.577Z,8.15
2022-08-19T20:33:14.552Z,4.95
2022-08-19T20:35:42.883Z,4.22
2022-08-19T20:38:10.695Z,3.95
2022-08-19T20:40:38.840Z,4.20
2022-08-19T20:43:11.166Z,4.18
2022-08-19T20:45:38.304Z,5.28
2022-08-19T20:48:07.160Z,3.40
2022-08-19T20:50:38.348Z,4.28
2022-08-19T20:53:14.154Z,3.78
2022-08-19T20:55:45.187Z,4.75
2022-08-19T20:58:13.579Z,4.40
2022-08-19T21:00:41.699Z,2.78
2022-08-19T21:03:16.982Z,3.97
2022-08-19T21:08:20.804Z,3.90
2022-08-19T21:10:55.720Z,4.15
2022-08-19T21:13:23.816Z,5.65
2022-08-19T21:15:59.181Z,4.63
2022-08-19T21:20:58.444Z,3.15
2022-08-19T21:23:27.269Z,3.42
2022-08-19T21:25:56.295Z,3.85
2022-08-19T21:28:35.171Z,4.57
2022-08-19T21:31:06.571Z,3.67
2022-08-19T21:33:35.793Z,3.60
2022-08-19T21:36:03.646Z,5.13
2022-08-19T21:38:32.703Z,7.13
2022-08-19T21:41:01.045Z,3.60
2022-08-19T21:43:33.663Z,4.53
2022-08-19T21:46:20.410Z,3.10
2022-08-19T21:49:49.445Z,3.30
2022-08-19T21:53:34.630Z,3.78
2022-08-19T22:03:43.841Z,4.85
2022-08-19T22:07:13.869Z,2.78
2022-08-19T22:09:58.429Z,4.55
2022-08-19T22:18:20.463Z,4.38
2022-08-19T22:20:50.263Z,6.13
2022-08-19T22:23:33.653Z,3.95
2022-08-19T22:26:00.439Z,5.10
2022-08-19T22:28:30.345Z,6.47
2022-08-19T22:31:03.484Z,3.25
2022-08-19T22:33:34.285Z,3.95
2022-08-19T22:36:29.535Z,6.07
2022-08-19T22:39:12.983Z,3.50
2022-08-19T22:42:12.169Z,6.20
2022-08-19T22:44:28.710Z,8.38
2022-08-19T22:46:55.520Z,5.68
2022-08-19T22:49:38.497Z,4.78
2022-08-19T22:52:20.052Z,4.55
2022-08-19T23:02:52.607Z,7.40
2022-08-19T23:05:42.385Z,7.25
2022-08-19T23:09:23.598Z,4.20
2022-08-19T23:11:32.899Z,6.97
2022-08-19T23:14:33.387Z,4.82
2022-08-19T23:17:18.063Z,4.50
2022-08-19T23:19:55.747Z,6.03
2022-08-19T23:22:25.641Z,5.30
2022-08-19T23:25:18.272Z,6.82
2022-08-19T23:28:02.798Z,4.47
2022-08-19T23:30:31.341Z,6.47
2022-08-19T23:33:07.706Z,6.10
2022-08-19T23:35:38.404Z,7.22
2022-08-19T23:38:06.961Z,5.13
2022-08-19T23:40:37.952Z,4.57
2022-08-19T23:43:25.028Z,4.78
2022-08-19T23:45:57.442Z,5.43
2022-08-19T23:49:50.340Z,7.25
2022-08-19T23:55:06.856Z,5.13
2022-08-19T23:57:41.007Z,4.68
